sensor_id;sensor_type;location;lat;lon;timestamp;P1;durP1;ratioP1;P2;durP2;ratioP2
13147;SDS011;6639;50.956;4.242;2023-03-01T00:00:20;13.37;;;10.43;;
13147;SDS011;6639;50.956;4.242;2023-03-01T00:02:48;12.57;;;10.10;;
13147;SDS011;6639;50.956;4.242;2023-03-01T00:05:15;11.60;;;10.40;;
13147;SDS011;6639;50.956;4.242;2023-03-01T00:07:42;15.03;;;10.30;;
13147;SDS011;6639;50.956;4.242;2023-03-01T00:10:11;11.60;;;10.50;;
13147;SDS011;6639;50.956;4.242;2023-03-01T00:12:37;11.63;;;9.60;;
13147;SDS011;6639;50.956;4.242;2023-03-01T00:15:05;11.57;;;9.43;;
13147;SDS011;6639;50.956;4.242;2023-03-01T00:17:32;11.47;;;10.20;;
13147;SDS011;6639;50.956;4.242;2023-03-01T00:20:01;11.23;;;10.07;;
13147;SDS011;6639;50.956;4.242;2023-03-01T00:22:28;11.67;;;10.50;;
13147;SDS011;6639;50.956;4.242;2023-03-01T00:24:55;12.77;;;10.10;;
13147;SDS011;6639;50.956;4.242;2023-03-01T00:27:21;11.63;;;10.20;;
13147;SDS011;6639;50.956;4.242;2023-03-01T00:29:51;11.30;;;10.30;;
13147;SDS011;6639;50.956;4.242;2023-03-01T00:32:18;11.77;;;10.57;;
13147;SDS011;6639;50.956;4.242;2023-03-01T00:34:45;11.60;;;10.30;;
13147;SDS011;6639;50.956;4.242;2023-03-01T00:37:20;13.63;;;10.47;;
13147;SDS011;6639;50.956;4.242;2023-03-01T00:39:47;12.70;;;10.37;;
13147;SDS011;6639;50.956;4.242;2023-03-01T00:42:14;13.13;;;9.00;;
13147;SDS011;6639;50.956;4.242;2023-03-01T00:44:42;13.93;;;9.70;;
13147;SDS011;6639;50.956;4.242;2023-03-01T00:47:09;10.63;;;9.57;;
13147;SDS011;6639;50.956;4.242;2023-03-01T00:49:36;10.47;;;9.33;;
13147;SDS011;6639;50.956;4.242;2023-03-01T00:52:02;10.37;;;9.27;;
13147;SDS011;6639;50.956;4.242;2023-03-01T00:54:33;12.63;;;10.50;;
13147;SDS011;6639;50.956;4.242;2023-03-01T00:57:00;12.60;;;9.30;;
13147;SDS011;6639;50.956;4.242;2023-03-01T00:59:27;10.33;;;9.33;;
13147;SDS011;6639;50.956;4.242;2023-03-01T01:01:54;11.23;;;9.90;;
13147;SDS011;6639;50.956;4.242;2023-03-01T01:04:21;10.70;;;9.60;;
13147;SDS011;6639;50.956;4.242;2023-03-01T01:06:48;12.93;;;9.80;;
13147;SDS011;6639;50.956;4.242;2023-03-01T01:09:16;10.77;;;9.67;;
13147;SDS011;6639;50.956;4.242;2023-03-01T01:11:44;10.57;;;9.57;;
13147;SDS011;6639;50.956;4.242;2023-03-01T01:14:12;10.43;;;9.50;;
13147;SDS011;6639;50.956;4.242;2023-03-01T01:16:39;10.90;;;9.80;;
13147;SDS011;6639;50.956;4.242;2023-03-01T01:19:06;10.70;;;9.60;;
13147;SDS011;6639;50.956;4.242;2023-03-01T01:21:33;12.90;;;10.17;;
13147;SDS011;6639;50.956;4.242;2023-03-01T01:24:02;10.47;;;9.47;;
13147;SDS011;6639;50.956;4.242;2023-03-01T01:26:30;11.37;;;10.10;;
13147;SDS011;6639;50.956;4.242;2023-03-01T01:29:01;10.30;;;9.27;;
13147;SDS011;6639;50.956;4.242;2023-03-01T01:31:30;10.40;;;9.33;;
13147;SDS011;6639;50.956;4.242;2023-03-01T01:34:01;10.37;;;9.37;;
13147;SDS011;6639;50.956;4.242;2023-03-01T01:36:39;11.40;;;9.47;;
13147;SDS011;6639;50.956;4.242;2023-03-01T01:39:06;10.47;;;9.47;;
13147;SDS011;6639;50.956;4.242;2023-03-01T01:41:38;11.70;;;9.83;;
13147;SDS011;6639;50.956;4.242;2023-03-01T01:44:11;10.67;;;9.57;;
13147;SDS011;6639;50.956;4.242;2023-03-01T01:46:40;10.20;;;9.03;;
13147;SDS011;6639;50.956;4.242;2023-03-01T01:49:12;11.10;;;9.20;;
13147;SDS011;6639;50.956;4.242;2023-03-01T01:51:51;10.97;;;9.33;;
13147;SDS011;6639;50.956;4.242;2023-03-01T01:54:24;9.73;;;8.77;;
13147;SDS011;6639;50.956;4.242;2023-03-01T01:56:56;10.00;;;9.00;;
13147;SDS011;6639;50.956;4.242;2023-03-01T01:59:27;10.87;;;8.73;;
13147;SDS011;6639;50.956;4.242;2023-03-01T02:01:56;9.77;;;8.80;;
13147;SDS011;6639;50.956;4.242;2023-03-01T02:04:25;9.70;;;8.70;;
13147;SDS011;6639;50.956;4.242;2023-03-01T02:06:53;11.13;;;8.23;;
13147;SDS011;6639;50.956;4.242;2023-03-01T02:09:24;9.50;;;8.50;;
13147;SDS011;6639;50.956;4.242;2023-03-01T02:11:51;9.17;;;8.27;;
13147;SDS011;6639;50.956;4.242;2023-03-01T02:14:19;9.47;;;8.57;;
13147;SDS011;6639;50.956;4.242;2023-03-01T02:16:48;8.57;;;7.77;;
13147;SDS011;6639;50.956;4.242;2023-03-01T02:19:18;9.00;;;8.10;;
13147;SDS011;6639;50.956;4.242;2023-03-01T02:21:54;8.60;;;7.80;;
13147;SDS011;6639;50.956;4.242;2023-03-01T02:24:29;8.77;;;7.77;;
13147;SDS011;6639;50.956;4.242;2023-03-01T02:27:12;9.97;;;8.57;;
13147;SDS011;6639;50.956;4.242;2023-03-01T02:29:42;10.27;;;8.33;;
13147;SDS011;6639;50.956;4.242;2023-03-01T02:32:09;10.47;;;8.70;;
13147;SDS011;6639;50.956;4.242;2023-03-01T02:34:38;8.43;;;7.70;;
13147;SDS011;6639;50.956;4.242;2023-03-01T02:37:07;8.13;;;7.33;;
13147;SDS011;6639;50.956;4.242;2023-03-01T02:39:39;8.57;;;7.67;;
13147;SDS011;6639;50.956;4.242;2023-03-01T02:42:09;8.50;;;7.17;;
13147;SDS011;6639;50.956;4.242;2023-03-01T02:44:39;8.40;;;7.60;;
13147;SDS011;6639;50.956;4.242;2023-03-01T02:47:07;10.30;;;8.20;;
13147;SDS011;6639;50.956;4.242;2023-03-01T02:49:35;9.03;;;7.67;;
13147;SDS011;6639;50.956;4.242;2023-03-01T02:52:19;8.63;;;7.73;;
13147;SDS011;6639;50.956;4.242;2023-03-01T02:54:56;8.50;;;7.70;;
13147;SDS011;6639;50.956;4.242;2023-03-01T02:57:27;8.43;;;7.47;;
13147;SDS011;6639;50.956;4.242;2023-03-01T02:59:56;8.30;;;7.50;;
13147;SDS011;6639;50.956;4.242;2023-03-01T03:02:33;8.83;;;7.93;;
13147;SDS011;6639;50.956;4.242;2023-03-01T03:05:06;7.97;;;7.17;;
13147;SDS011;6639;50.956;4.242;2023-03-01T03:07:35;8.47;;;7.67;;
13147;SDS011;6639;50.956;4.242;2023-03-01T03:10:04;10.33;;;8.37;;
13147;SDS011;6639;50.956;4.242;2023-03-01T03:12:36;8.17;;;7.20;;
13147;SDS011;6639;50.956;4.242;2023-03-01T03:15:03;9.93;;;8.23;;
13147;SDS011;6639;50.956;4.242;2023-03-01T03:17:35;8.67;;;7.93;;
13147;SDS011;6639;50.956;4.242;2023-03-01T03:20:02;9.73;;;8.20;;
13147;SDS011;6639;50.956;4.242;2023-03-01T03:22:30;8.63;;;7.70;;
13147;SDS011;6639;50.956;4.242;2023-03-01T03:24:59;9.10;;;8.03;;
13147;SDS011;6639;50.956;4.242;2023-03-01T03:27:26;8.57;;;7.53;;
13147;SDS011;6639;50.956;4.242;2023-03-01T03:29:54;7.83;;;6.97;;
13147;SDS011;6639;50.956;4.242;2023-03-01T03:32:21;9.83;;;8.37;;
13147;SDS011;6639;50.956;4.242;2023-03-01T03:34:49;8.57;;;7.67;;
13147;SDS011;6639;50.956;4.242;2023-03-01T03:37:16;8.57;;;7.77;;
13147;SDS011;6639;50.956;4.242;2023-03-01T03:39:57;7.73;;;6.93;;
13147;SDS011;6639;50.956;4.242;2023-03-01T03:42:24;8.40;;;7.60;;
13147;SDS011;6639;50.956;4.242;2023-03-01T03:44:51;7.23;;;6.60;;
13147;SDS011;6639;50.956;4.242;2023-03-01T03:47:18;9.00;;;7.77;;
13147;SDS011;6639;50.956;4.242;2023-03-01T03:49:45;8.87;;;7.97;;
13147;SDS011;6639;50.956;4.242;2023-03-01T03:52:13;8.93;;;7.87;;
13147;SDS011;6639;50.956;4.242;2023-03-01T03:54:40;7.70;;;6.90;;
13147;SDS011;6639;50.956;4.242;2023-03-01T03:57:07;8.17;;;7.43;;
13147;SDS011;6639;50.956;4.242;2023-03-01T03:59:34;10.30;;;7.80;;
13147;SDS011;6639;50.956;4.242;2023-03-01T04:02:01;7.70;;;6.93;;
13147;SDS011;6639;50.956;4.242;2023-03-01T04:04:28;8.40;;;7.53;;
13147;SDS011;6639;50.956;4.242;2023-03-01T04:06:55;8.53;;;7.73;;
13147;SDS011;6639;50.956;4.242;2023-03-01T04:09:23;8.30;;;7.40;;
13147;SDS011;6639;50.956;4.242;2023-03-01T04:11:50;8.53;;;7.73;;
13147;SDS011;6639;50.956;4.242;2023-03-01T04:14:17;7.93;;;7.13;;
13147;SDS011;6639;50.956;4.242;2023-03-01T04:16:44;7.77;;;6.97;;
13147;SDS011;6639;50.956;4.242;2023-03-01T04:19:11;9.00;;;7.03;;
13147;SDS011;6639;50.956;4.242;2023-03-01T04:21:40;11.53;;;7.40;;
13147;SDS011;6639;50.956;4.242;2023-03-01T04:24:07;8.73;;;7.80;;
13147;SDS011;6639;50.956;4.242;2023-03-01T04:26:36;7.40;;;6.77;;
13147;SDS011;6639;50.956;4.242;2023-03-01T04:29:02;7.10;;;6.50;;
13147;SDS011;6639;50.956;4.242;2023-03-01T04:31:29;7.37;;;6.67;;
13147;SDS011;6639;50.956;4.242;2023-03-01T04:33:56;8.27;;;7.57;;
13147;SDS011;6639;50.956;4.242;2023-03-01T04:36:24;8.27;;;7.47;;
13147;SDS011;6639;50.956;4.242;2023-03-01T04:38:52;8.87;;;8.07;;
13147;SDS011;6639;50.956;4.242;2023-03-01T04:41:21;7.70;;;6.90;;
13147;SDS011;6639;50.956;4.242;2023-03-01T04:43:50;7.97;;;6.97;;
13147;SDS011;6639;50.956;4.242;2023-03-01T04:46:18;7.70;;;7.00;;
13147;SDS011;6639;50.956;4.242;2023-03-01T04:48:46;8.00;;;6.83;;
13147;SDS011;6639;50.956;4.242;2023-03-01T04:51:14;7.80;;;7.00;;
13147;SDS011;6639;50.956;4.242;2023-03-01T04:53:41;9.47;;;7.70;;
13147;SDS011;6639;50.956;4.242;2023-03-01T04:56:09;8.87;;;7.80;;
13147;SDS011;6639;50.956;4.242;2023-03-01T04:58:36;10.70;;;7.00;;
13147;SDS011;6639;50.956;4.242;2023-03-01T05:01:09;8.60;;;7.70;;
13147;SDS011;6639;50.956;4.242;2023-03-01T05:03:40;7.50;;;6.80;;
13147;SDS011;6639;50.956;4.242;2023-03-01T05:06:07;9.03;;;7.50;;
13147;SDS011;6639;50.956;4.242;2023-03-01T05:08:35;13.70;;;7.90;;
13147;SDS011;6639;50.956;4.242;2023-03-01T05:11:03;8.93;;;8.03;;
13147;SDS011;6639;50.956;4.242;2023-03-01T05:13:30;8.87;;;7.97;;
13147;SDS011;6639;50.956;4.242;2023-03-01T05:15:59;8.40;;;7.07;;
13147;SDS011;6639;50.956;4.242;2023-03-01T05:18:30;8.33;;;7.43;;
13147;SDS011;6639;50.956;4.242;2023-03-01T05:21:01;7.87;;;7.20;;
13147;SDS011;6639;50.956;4.242;2023-03-01T05:23:29;7.70;;;6.90;;
13147;SDS011;6639;50.956;4.242;2023-03-01T05:25:57;7.83;;;7.13;;
13147;SDS011;6639;50.956;4.242;2023-03-01T05:28:24;8.20;;;7.40;;
13147;SDS011;6639;50.956;4.242;2023-03-01T05:30:51;8.13;;;7.17;;
13147;SDS011;6639;50.956;4.242;2023-03-01T05:33:18;8.03;;;7.23;;
13147;SDS011;6639;50.956;4.242;2023-03-01T05:35:48;8.30;;;7.50;;
13147;SDS011;6639;50.956;4.242;2023-03-01T05:38:17;7.80;;;7.00;;
13147;SDS011;6639;50.956;4.242;2023-03-01T05:40:45;8.80;;;7.57;;
13147;SDS011;6639;50.956;4.242;2023-03-01T05:43:13;8.10;;;7.37;;
13147;SDS011;6639;50.956;4.242;2023-03-01T05:45:41;9.37;;;8.00;;
13147;SDS011;6639;50.956;4.242;2023-03-01T05:48:09;8.63;;;7.73;;
13147;SDS011;6639;50.956;4.242;2023-03-01T05:50:38;7.60;;;6.90;;
13147;SDS011;6639;50.956;4.242;2023-03-01T05:53:09;8.03;;;7.23;;
13147;SDS011;6639;50.956;4.242;2023-03-01T05:55:38;10.87;;;7.50;;
13147;SDS011;6639;50.956;4.242;2023-03-01T05:58:06;7.60;;;6.80;;
13147;SDS011;6639;50.956;4.242;2023-03-01T06:00:34;8.17;;;7.30;;
13147;SDS011;6639;50.956;4.242;2023-03-01T06:03:01;7.90;;;6.90;;
13147;SDS011;6639;50.956;4.242;2023-03-01T06:05:29;10.57;;;7.60;;
13147;SDS011;6639;50.956;4.242;2023-03-01T06:07:58;11.50;;;8.27;;
13147;SDS011;6639;50.956;4.242;2023-03-01T06:10:27;8.93;;;7.63;;
13147;SDS011;6639;50.956;4.242;2023-03-01T06:12:54;9.03;;;7.23;;
13147;SDS011;6639;50.956;4.242;2023-03-01T06:15:21;8.23;;;7.50;;
13147;SDS011;6639;50.956;4.242;2023-03-01T06:17:49;8.03;;;7.23;;
13147;SDS011;6639;50.956;4.242;2023-03-01T06:20:16;8.50;;;7.67;;
13147;SDS011;6639;50.956;4.242;2023-03-01T06:22:45;11.07;;;7.23;;
13147;SDS011;6639;50.956;4.242;2023-03-01T06:25:13;7.83;;;6.93;;
13147;SDS011;6639;50.956;4.242;2023-03-01T06:27:43;7.63;;;6.73;;
13147;SDS011;6639;50.956;4.242;2023-03-01T06:30:11;7.93;;;7.23;;
13147;SDS011;6639;50.956;4.242;2023-03-01T06:32:39;7.03;;;6.37;;
13147;SDS011;6639;50.956;4.242;2023-03-01T06:35:07;9.23;;;7.33;;
13147;SDS011;6639;50.956;4.242;2023-03-01T06:37:35;8.33;;;7.53;;
13147;SDS011;6639;50.956;4.242;2023-03-01T06:40:02;8.30;;;7.50;;
13147;SDS011;6639;50.956;4.242;2023-03-01T06:42:33;13.43;;;7.90;;
13147;SDS011;6639;50.956;4.242;2023-03-01T06:45:01;8.03;;;7.20;;
13147;SDS011;6639;50.956;4.242;2023-03-01T06:47:29;8.50;;;7.57;;
13147;SDS011;6639;50.956;4.242;2023-03-01T06:49:55;10.43;;;7.77;;
13147;SDS011;6639;50.956;4.242;2023-03-01T06:52:22;9.27;;;7.47;;
13147;SDS011;6639;50.956;4.242;2023-03-01T06:54:49;7.23;;;6.57;;
13147;SDS011;6639;50.956;4.242;2023-03-01T06:57:16;6.70;;;6.00;;
13147;SDS011;6639;50.956;4.242;2023-03-01T06:59:43;9.13;;;6.53;;
13147;SDS011;6639;50.956;4.242;2023-03-01T07:02:12;7.07;;;6.47;;
13147;SDS011;6639;50.956;4.242;2023-03-01T07:04:40;7.73;;;6.13;;
13147;SDS011;6639;50.956;4.242;2023-03-01T07:07:07;7.90;;;7.07;;
13147;SDS011;6639;50.956;4.242;2023-03-01T07:09:34;8.73;;;7.43;;
13147;SDS011;6639;50.956;4.242;2023-03-01T07:12:02;7.83;;;6.57;;
13147;SDS011;6639;50.956;4.242;2023-03-01T07:14:29;8.17;;;6.47;;
13147;SDS011;6639;50.956;4.242;2023-03-01T07:16:56;7.40;;;6.70;;
13147;SDS011;6639;50.956;4.242;2023-03-01T07:19:24;7.13;;;6.43;;
13147;SDS011;6639;50.956;4.242;2023-03-01T07:21:51;7.10;;;6.40;;
13147;SDS011;6639;50.956;4.242;2023-03-01T07:24:19;9.37;;;7.17;;
13147;SDS011;6639;50.956;4.242;2023-03-01T07:26:47;8.20;;;7.40;;
13147;SDS011;6639;50.956;4.242;2023-03-01T07:29:15;7.10;;;6.40;;
13147;SDS011;6639;50.956;4.242;2023-03-01T07:31:42;6.73;;;5.93;;
13147;SDS011;6639;50.956;4.242;2023-03-01T07:34:10;7.23;;;6.33;;
13147;SDS011;6639;50.956;4.242;2023-03-01T07:36:38;8.67;;;6.73;;
13147;SDS011;6639;50.956;4.242;2023-03-01T07:39:08;7.33;;;6.17;;
13147;SDS011;6639;50.956;4.242;2023-03-01T07:41:35;10.23;;;6.50;;
13147;SDS011;6639;50.956;4.242;2023-03-01T07:44:05;9.27;;;6.78;;
13147;SDS011;6639;50.956;4.242;2023-03-01T07:46:42;6.78;;;6.18;;
13147;SDS011;6639;50.956;4.242;2023-03-01T07:49:12;7.30;;;6.38;;
13147;SDS011;6639;50.956;4.242;2023-03-01T07:51:44;9.70;;;6.93;;
13147;SDS011;6639;50.956;4.242;2023-03-01T07:54:11;8.25;;;6.78;;
13147;SDS011;6639;50.956;4.242;2023-03-01T07:56:38;8.05;;;6.78;;
13147;SDS011;6639;50.956;4.242;2023-03-01T07:59:05;7.40;;;6.70;;
13147;SDS011;6639;50.956;4.242;2023-03-01T08:01:35;11.40;;;7.10;;
13147;SDS011;6639;50.956;4.242;2023-03-01T08:04:02;8.52;;;7.00;;
13147;SDS011;6639;50.956;4.242;2023-03-01T08:06:33;9.63;;;7.32;;
13147;SDS011;6639;50.956;4.242;2023-03-01T08:09:02;7.47;;;6.50;;
13147;SDS011;6639;50.956;4.242;2023-03-01T08:11:29;7.32;;;6.63;;
13147;SDS011;6639;50.956;4.242;2023-03-01T08:13:56;7.28;;;6.50;;
13147;SDS011;6639;50.956;4.242;2023-03-01T08:16:23;7.90;;;7.10;;
13147;SDS011;6639;50.956;4.242;2023-03-01T08:18:50;7.50;;;6.90;;
13147;SDS011;6639;50.956;4.242;2023-03-01T08:21:17;7.45;;;6.68;;
13147;SDS011;6639;50.956;4.242;2023-03-01T08:23:45;8.40;;;7.15;;
13147;SDS011;6639;50.956;4.242;2023-03-01T08:26:14;8.63;;;6.88;;
13147;SDS011;6639;50.956;4.242;2023-03-01T08:28:43;8.75;;;7.85;;
13147;SDS011;6639;50.956;4.242;2023-03-01T08:31:22;7.18;;;6.28;;
13147;SDS011;6639;50.956;4.242;2023-03-01T08:33:51;7.97;;;6.50;;
13147;SDS011;6639;50.956;4.242;2023-03-01T08:36:23;6.93;;;6.32;;
13147;SDS011;6639;50.956;4.242;2023-03-01T08:38:58;7.80;;;6.97;;
13147;SDS011;6639;50.956;4.242;2023-03-01T08:41:26;8.05;;;6.53;;
13147;SDS011;6639;50.956;4.242;2023-03-01T08:43:55;7.72;;;7.03;;
13147;SDS011;6639;50.956;4.242;2023-03-01T08:46:25;7.72;;;7.03;;
13147;SDS011;6639;50.956;4.242;2023-03-01T08:48:52;7.82;;;7.03;;
13147;SDS011;6639;50.956;4.242;2023-03-01T08:51:20;7.70;;;6.55;;
13147;SDS011;6639;50.956;4.242;2023-03-01T08:53:48;7.63;;;6.82;;
13147;SDS011;6639;50.956;4.242;2023-03-01T08:56:17;8.27;;;7.43;;
13147;SDS011;6639;50.956;4.242;2023-03-01T08:58:47;7.35;;;6.75;;
13147;SDS011;6639;50.956;4.242;2023-03-01T09:01:15;7.85;;;6.90;;
13147;SDS011;6639;50.956;4.242;2023-03-01T09:03:44;7.88;;;6.80;;
13147;SDS011;6639;50.956;4.242;2023-03-01T09:06:11;8.93;;;7.53;;
13147;SDS011;6639;50.956;4.242;2023-03-01T09:08:39;7.30;;;6.55;;
13147;SDS011;6639;50.956;4.242;2023-03-01T09:11:09;7.78;;;6.97;;
13147;SDS011;6639;50.956;4.242;2023-03-01T09:13:38;8.50;;;7.03;;
13147;SDS011;6639;50.956;4.242;2023-03-01T09:16:07;8.77;;;7.72;;
13147;SDS011;6639;50.956;4.242;2023-03-01T09:18:34;8.15;;;7.25;;
13147;SDS011;6639;50.956;4.242;2023-03-01T09:21:05;7.38;;;6.72;;
13147;SDS011;6639;50.956;4.242;2023-03-01T09:23:37;7.68;;;6.97;;
13147;SDS011;6639;50.956;4.242;2023-03-01T09:26:09;8.25;;;7.50;;
13147;SDS011;6639;50.956;4.242;2023-03-01T09:28:39;8.38;;;7.57;;
13147;SDS011;6639;50.956;4.242;2023-03-01T09:31:08;8.23;;;7.03;;
13147;SDS011;6639;50.956;4.242;2023-03-01T09:33:45;8.20;;;7.45;;
13147;SDS011;6639;50.956;4.242;2023-03-01T09:36:25;9.15;;;6.40;;
13147;SDS011;6639;50.956;4.242;2023-03-01T09:38:53;8.25;;;7.45;;
13147;SDS011;6639;50.956;4.242;2023-03-01T09:41:33;8.43;;;7.63;;
13147;SDS011;6639;50.956;4.242;2023-03-01T09:44:10;8.63;;;7.15;;
13147;SDS011;6639;50.956;4.242;2023-03-01T09:46:46;7.90;;;7.25;;
13147;SDS011;6639;50.956;4.242;2023-03-01T09:49:14;8.50;;;7.63;;
13147;SDS011;6639;50.956;4.242;2023-03-01T09:51:47;8.27;;;7.47;;
13147;SDS011;6639;50.956;4.242;2023-03-01T09:54:21;7.78;;;7.07;;
13147;SDS011;6639;50.956;4.242;2023-03-01T09:56:52;11.00;;;8.07;;
13147;SDS011;6639;50.956;4.242;2023-03-01T09:59:28;11.23;;;7.57;;
13147;SDS011;6639;50.956;4.242;2023-03-01T10:02:11;8.25;;;7.43;;
13147;SDS011;6639;50.956;4.242;2023-03-01T10:04:53;8.35;;;7.35;;
13147;SDS011;6639;50.956;4.242;2023-03-01T10:07:27;7.72;;;6.95;;
13147;SDS011;6639;50.956;4.242;2023-03-01T10:10:03;8.23;;;7.53;;
13147;SDS011;6639;50.956;4.242;2023-03-01T10:12:33;10.13;;;7.80;;
13147;SDS011;6639;50.956;4.242;2023-03-01T10:15:05;8.15;;;7.43;;
13147;SDS011;6639;50.956;4.242;2023-03-01T10:17:41;8.27;;;7.47;;
13147;SDS011;6639;50.956;4.242;2023-03-01T10:20:15;8.05;;;7.13;;
13147;SDS011;6639;50.956;4.242;2023-03-01T10:22:44;8.75;;;7.93;;
13147;SDS011;6639;50.956;4.242;2023-03-01T10:25:17;9.25;;;6.70;;
13147;SDS011;6639;50.956;4.242;2023-03-01T10:28:01;8.00;;;7.20;;
13147;SDS011;6639;50.956;4.242;2023-03-01T10:30:34;8.73;;;7.93;;
13147;SDS011;6639;50.956;4.242;2023-03-01T10:33:07;8.43;;;7.20;;
13147;SDS011;6639;50.956;4.242;2023-03-01T10:35:43;7.47;;;6.78;;
13147;SDS011;6639;50.956;4.242;2023-03-01T10:38:12;9.52;;;7.80;;
13147;SDS011;6639;50.956;4.242;2023-03-01T10:40:50;8.43;;;7.57;;
13147;SDS011;6639;50.956;4.242;2023-03-01T10:43:19;9.95;;;7.93;;
13147;SDS011;6639;50.956;4.242;2023-03-01T10:45:47;8.95;;;7.70;;
13147;SDS011;6639;50.956;4.242;2023-03-01T10:48:21;8.93;;;8.05;;
13147;SDS011;6639;50.956;4.242;2023-03-01T10:51:03;13.65;;;8.52;;
13147;SDS011;6639;50.956;4.242;2023-03-01T10:53:32;13.77;;;7.97;;
13147;SDS011;6639;50.956;4.242;2023-03-01T10:56:02;11.63;;;8.15;;
13147;SDS011;6639;50.956;4.242;2023-03-01T10:58:31;8.68;;;7.88;;
13147;SDS011;6639;50.956;4.242;2023-03-01T11:01:00;11.20;;;7.85;;
13147;SDS011;6639;50.956;4.242;2023-03-01T11:03:30;9.27;;;8.43;;
13147;SDS011;6639;50.956;4.242;2023-03-01T11:06:03;8.13;;;7.43;;
13147;SDS011;6639;50.956;4.242;2023-03-01T11:08:46;8.13;;;7.28;;
13147;SDS011;6639;50.956;4.242;2023-03-01T11:11:18;7.55;;;6.88;;
13147;SDS011;6639;50.956;4.242;2023-03-01T11:14:05;8.10;;;6.53;;
13147;SDS011;6639;50.956;4.242;2023-03-01T11:16:39;9.43;;;8.52;;
13147;SDS011;6639;50.956;4.242;2023-03-01T11:19:15;8.45;;;7.28;;
13147;SDS011;6639;50.956;4.242;2023-03-01T11:21:54;8.15;;;7.43;;
13147;SDS011;6639;50.956;4.242;2023-03-01T11:24:28;8.45;;;7.38;;
13147;SDS011;6639;50.956;4.242;2023-03-01T11:27:11;8.00;;;7.30;;
13147;SDS011;6639;50.956;4.242;2023-03-01T11:29:45;7.88;;;7.18;;
13147;SDS011;6639;50.956;4.242;2023-03-01T11:32:20;8.18;;;7.47;;
13147;SDS011;6639;50.956;4.242;2023-03-01T11:34:54;8.10;;;7.18;;
13147;SDS011;6639;50.956;4.242;2023-03-01T11:37:28;7.60;;;6.85;;
13147;SDS011;6639;50.956;4.242;2023-03-01T11:40:12;8.60;;;7.80;;
13147;SDS011;6639;50.956;4.242;2023-03-01T11:42:48;7.95;;;7.25;;
13147;SDS011;6639;50.956;4.242;2023-03-01T11:45:26;7.68;;;6.97;;
13147;SDS011;6639;50.956;4.242;2023-03-01T11:48:19;7.88;;;7.18;;
13147;SDS011;6639;50.956;4.242;2023-03-01T11:50:59;7.72;;;6.93;;
13147;SDS011;6639;50.956;4.242;2023-03-01T11:53:34;7.50;;;6.68;;
13147;SDS011;6639;50.956;4.242;2023-03-01T11:56:16;8.35;;;7.55;;
13147;SDS011;6639;50.956;4.242;2023-03-01T11:58:57;10.73;;;7.63;;
13147;SDS011;6639;50.956;4.242;2023-03-01T12:01:35;8.38;;;7.15;;
13147;SDS011;6639;50.956;4.242;2023-03-01T12:04:26;7.00;;;6.32;;
13147;SDS011;6639;50.956;4.242;2023-03-01T12:07:10;8.38;;;7.45;;
13147;SDS011;6639;50.956;4.242;2023-03-01T12:09:50;8.25;;;7.45;;
13147;SDS011;6639;50.956;4.242;2023-03-01T12:12:32;9.70;;;6.97;;
13147;SDS011;6639;50.956;4.242;2023-03-01T12:15:18;8.15;;;6.70;;
13147;SDS011;6639;50.956;4.242;2023-03-01T12:18:12;8.00;;;7.30;;
13147;SDS011;6639;50.956;4.242;2023-03-01T12:20:54;7.75;;;7.05;;
13147;SDS011;6639;50.956;4.242;2023-03-01T12:23:34;7.05;;;6.45;;
13147;SDS011;6639;50.956;4.242;2023-03-01T12:26:17;7.20;;;6.50;;
13147;SDS011;6639;50.956;4.242;2023-03-01T12:28:55;7.82;;;7.03;;
13147;SDS011;6639;50.956;4.242;2023-03-01T12:32:01;7.35;;;6.55;;
13147;SDS011;6639;50.956;4.242;2023-03-01T12:34:53;7.45;;;6.75;;
13147;SDS011;6639;50.956;4.242;2023-03-01T12:37:35;7.75;;;6.55;;
13147;SDS011;6639;50.956;4.242;2023-03-01T12:40:19;7.28;;;6.57;;
13147;SDS011;6639;50.956;4.242;2023-03-01T12:43:00;8.07;;;6.65;;
13147;SDS011;6639;50.956;4.242;2023-03-01T12:45:38;8.40;;;7.35;;
13147;SDS011;6639;50.956;4.242;2023-03-01T12:51:02;8.13;;;7.35;;
13147;SDS011;6639;50.956;4.242;2023-03-01T12:53:35;8.00;;;7.20;;
13147;SDS011;6639;50.956;4.242;2023-03-01T12:56:07;7.95;;;7.15;;
13147;SDS011;6639;50.956;4.242;2023-03-01T12:58:39;7.30;;;6.60;;
13147;SDS011;6639;50.956;4.242;2023-03-01T13:01:18;6.93;;;6.35;;
13147;SDS011;6639;50.956;4.242;2023-03-01T13:03:58;7.43;;;6.72;;
13147;SDS011;6639;50.956;4.242;2023-03-01T13:06:38;10.75;;;7.57;;
13147;SDS011;6639;50.956;4.242;2023-03-01T13:09:14;7.05;;;6.38;;
13147;SDS011;6639;50.956;4.242;2023-03-01T13:11:48;7.13;;;6.43;;
13147;SDS011;6639;50.956;4.242;2023-03-01T13:22:43;6.90;;;6.20;;
13147;SDS011;6639;50.956;4.242;2023-03-01T13:25:13;8.80;;;6.50;;
13147;SDS011;6639;50.956;4.242;2023-03-01T13:27:44;7.35;;;6.72;;
13147;SDS011;6639;50.956;4.242;2023-03-01T13:36:06;6.65;;;6.05;;
13147;SDS011;6639;50.956;4.242;2023-03-01T13:38:36;8.10;;;6.80;;
13147;SDS011;6639;50.956;4.242;2023-03-01T13:41:12;7.93;;;6.95;;
13147;SDS011;6639;50.956;4.242;2023-03-01T13:43:41;6.95;;;6.25;;
13147;SDS011;6639;50.956;4.242;2023-03-01T13:46:11;7.47;;;6.32;;
13147;SDS011;6639;50.956;4.242;2023-03-01T13:48:44;7.82;;;7.13;;
13147;SDS011;6639;50.956;4.242;2023-03-01T13:51:14;7.32;;;6.53;;
13147;SDS011;6639;50.956;4.242;2023-03-01T13:53:42;9.02;;;7.25;;
13147;SDS011;6639;50.956;4.242;2023-03-01T13:56:13;7.22;;;6.53;;
13147;SDS011;6639;50.956;4.242;2023-03-01T13:58:46;7.07;;;6.43;;
13147;SDS011;6639;50.956;4.242;2023-03-01T14:01:23;7.68;;;6.00;;
13147;SDS011;6639;50.956;4.242;2023-03-01T14:03:52;7.35;;;6.75;;
13147;SDS011;6639;50.956;4.242;2023-03-01T14:06:20;7.80;;;6.75;;
13147;SDS011;6639;50.956;4.242;2023-03-01T14:08:48;7.30;;;6.65;;
13147;SDS011;6639;50.956;4.242;2023-03-01T14:11:42;6.82;;;6.22;;
13147;SDS011;6639;50.956;4.242;2023-03-01T14:14:33;7.43;;;6.63;;
13147;SDS011;6639;50.956;4.242;2023-03-01T14:17:38;7.18;;;6.32;;
13147;SDS011;6639;50.956;4.242;2023-03-01T14:20:12;6.78;;;6.18;;
13147;SDS011;6639;50.956;4.242;2023-03-01T14:22:43;7.25;;;6.25;;
13147;SDS011;6639;50.956;4.242;2023-03-01T14:25:22;12.65;;;6.70;;
13147;SDS011;6639;50.956;4.242;2023-03-01T14:27:51;6.32;;;5.82;;
13147;SDS011;6639;50.956;4.242;2023-03-01T14:30:24;5.90;;;5.38;;
13147;SDS011;6639;50.956;4.242;2023-03-01T14:32:55;7.05;;;6.45;;
13147;SDS011;6639;50.956;4.242;2023-03-01T14:35:24;8.52;;;6.53;;
13147;SDS011;6639;50.956;4.242;2023-03-01T14:37:52;7.40;;;6.65;;
13147;SDS011;6639;50.956;4.242;2023-03-01T14:40:21;6.22;;;5.72;;
13147;SDS011;6639;50.956;4.242;2023-03-01T14:42:50;6.50;;;5.90;;
13147;SDS011;6639;50.956;4.242;2023-03-01T14:45:18;7.05;;;6.38;;
13147;SDS011;6639;50.956;4.242;2023-03-01T14:47:47;7.78;;;6.07;;
13147;SDS011;6639;50.956;4.242;2023-03-01T14:50:18;7.47;;;6.78;;
13147;SDS011;6639;50.956;4.242;2023-03-01T14:52:49;8.15;;;6.45;;
13147;SDS011;6639;50.956;4.242;2023-03-01T14:55:20;7.43;;;6.70;;
13147;SDS011;6639;50.956;4.242;2023-03-01T14:57:49;8.45;;;6.72;;
13147;SDS011;6639;50.956;4.242;2023-03-01T15:00:18;6.65;;;5.95;;
13147;SDS011;6639;50.956;4.242;2023-03-01T15:02:48;6.53;;;5.82;;
13147;SDS011;6639;50.956;4.242;2023-03-01T15:05:18;7.78;;;6.63;;
13147;SDS011;6639;50.956;4.242;2023-03-01T15:07:54;7.72;;;6.93;;
13147;SDS011;6639;50.956;4.242;2023-03-01T15:10:26;7.88;;;7.07;;
13147;SDS011;6639;50.956;4.242;2023-03-01T15:12:55;7.07;;;6.38;;
13147;SDS011;6639;50.956;4.242;2023-03-01T15:15:33;7.13;;;6.43;;
13147;SDS011;6639;50.956;4.242;2023-03-01T15:18:05;7.53;;;6.82;;
13147;SDS011;6639;50.956;4.242;2023-03-01T15:20:40;9.07;;;6.32;;
13147;SDS011;6639;50.956;4.242;2023-03-01T15:23:12;7.93;;;6.78;;
13147;SDS011;6639;50.956;4.242;2023-03-01T15:25:47;7.82;;;6.30;;
13147;SDS011;6639;50.956;4.242;2023-03-01T15:28:21;7.22;;;6.53;;
13147;SDS011;6639;50.956;4.242;2023-03-01T15:30:52;7.40;;;6.80;;
13147;SDS011;6639;50.956;4.242;2023-03-01T15:33:31;9.25;;;7.40;;
13147;SDS011;6639;50.956;4.242;2023-03-01T15:36:03;7.70;;;7.05;;
13147;SDS011;6639;50.956;4.242;2023-03-01T15:38:52;9.25;;;7.13;;